Time;durP1;ratioP1;P1;durP2;ratioP2;P2;SDS_P1;SDS_P2;PMS_P1;PMS_P2;Temp;Humidity;BMP_temperature;BMP_pressure;BME280_temperature;BME280_humidity;BME280_pressure;Samples;Min_cycle;Max_cycle;Signal;HPM_P1;HPM_P2
2022/01/11 00:00:05;;;;;;;16.45;9.23;;;;;;;-1.45;54.35;103018.94;5052380;28;20081;-70
2022/01/11 00:02:32;;;;;;;36.90;8.93;;;;;;;-1.59;54.14;103026.03;5053468;28;20090;-68
2022/01/11 00:05:00;;;;;;;53.15;11.55;;;;;;;-2.28;55.24;103025.38;5037610;28;20803;-70
2022/01/11 00:07:28;;;;;;;37.05;10.27;;;;;;;-2.15;55.64;103023.44;5040284;28;20092;-70
2022/01/11 00:09:57;;;;;;;22.08;8.95;;;;;;;-1.83;54.36;103030.91;5052141;28;20028;-70
2022/01/11 00:12:23;;;;;;;25.73;10.35;;;;;;;-2.29;54.90;103033.00;5027542;28;20136;-71
2022/01/11 00:14:48;;;;;;;39.70;10.77;;;;;;;-2.19;54.88;103026.66;5042475;28;20112;-71
2022/01/11 00:17:16;;;;;;;35.15;10.27;;;;;;;-2.70;56.53;103027.59;5030058;28;20124;-71
2022/01/11 00:19:43;;;;;;;33.47;10.18;;;;;;;-2.50;55.98;103037.97;5053558;28;20393;-71
2022/01/11 00:22:16;;;;;;;29.85;9.55;;;;;;;-2.66;56.33;103034.66;5036251;28;20040;-72
2022/01/11 00:24:42;;;;;;;22.20;9.57;;;;;;;-2.21;55.21;103035.13;5047683;28;20067;-71
2022/01/11 00:27:10;;;;;;;24.65;9.93;;;;;;;-2.12;54.74;103041.50;5039061;28;20048;-71
2022/01/11 00:29:45;;;;;;;47.28;10.88;;;;;;;-2.00;54.27;103042.06;5045008;28;20036;-71
2022/01/11 00:32:27;;;;;;;41.80;9.63;;;;;;;-2.24;54.79;103045.22;5043240;28;20037;-71
2022/01/11 00:34:55;;;;;;;37.58;10.07;;;;;;;-2.09;54.55;103041.63;5029689;28;20037;-72
2022/01/11 00:37:21;;;;;;;58.47;11.32;;;;;;;-2.31;54.30;103044.84;5036330;28;20048;-72
2022/01/11 00:39:50;;;;;;;13.50;8.82;;;;;;;-1.99;54.15;103048.09;5033979;28;20051;-71
2022/01/11 00:42:17;;;;;;;25.38;9.80;;;;;;;-1.94;53.64;103055.16;5036166;28;20510;-69
2022/01/11 00:44:43;;;;;;;23.60;10.38;;;;;;;-2.22;54.30;103064.13;5050839;28;20044;-68
2022/01/11 00:47:09;;;;;;;17.23;9.82;;;;;;;-2.07;54.52;103055.41;5054026;28;20043;-68
2022/01/11 00:49:38;;;;;;;59.40;10.05;;;;;;;-3.45;56.56;103059.59;5039888;28;20040;-69
2022/01/11 00:52:04;;;;;;;69.03;10.15;;;;;;;-3.10;56.29;103058.84;5028619;28;20128;-68
2022/01/11 00:54:29;;;;;;;21.13;10.13;;;;;;;-2.52;55.75;103065.19;5052699;28;20123;-69
2022/01/11 00:56:54;;;;;;;14.75;9.40;;;;;;;-2.30;55.21;103067.13;5050531;28;20028;-68
2022/01/11 00:59:22;;;;;;;42.88;9.80;;;;;;;-2.81;55.67;103072.28;5052084;28;20403;-68
2022/01/11 01:01:48;;;;;;;22.67;10.23;;;;;;;-2.51;55.27;103064.41;5037451;28;20040;-70
2022/01/11 01:04:13;;;;;;;51.10;11.20;;;;;;;-2.73;54.96;103076.09;5047182;28;20030;-72
2022/01/11 01:06:39;;;;;;;23.70;10.48;;;;;;;-2.44;54.97;103071.56;5047084;28;20036;-72
2022/01/11 01:09:06;;;;;;;46.33;10.77;;;;;;;-2.20;54.88;103074.44;5011366;28;20048;-71
2022/01/11 01:11:41;;;;;;;21.48;10.50;;;;;;;-2.30;54.85;103072.22;5039873;28;20059;-71
2022/01/11 01:14:06;;;;;;;43.90;11.45;;;;;;;-2.32;54.52;103078.97;5036759;28;20033;-71
2022/01/11 01:16:32;;;;;;;17.10;9.90;;;;;;;-2.16;54.16;103080.59;5036822;28;20395;-71
2022/01/11 01:19:05;;;;;;;21.48;9.48;;;;;;;-2.11;54.17;103079.09;5035568;28;20024;-72
2022/01/11 01:21:36;;;;;;;47.15;11.10;;;;;;;-2.61;55.08;103077.53;5036103;28;20048;-73
2022/01/11 01:24:07;;;;;;;17.35;9.00;;;;;;;-2.25;54.26;103087.00;5009096;28;20400;-71
2022/01/11 01:26:33;;;;;;;17.40;9.80;;;;;;;-2.12;54.49;103082.50;5034198;28;20064;-71
2022/01/11 01:29:00;;;;;;;13.27;8.30;;;;;;;-2.21;54.60;103082.94;5041140;28;20041;-71
2022/01/11 01:31:31;;;;;;;20.77;10.05;;;;;;;-1.97;54.08;103082.34;5025454;28;20467;-71
2022/01/11 01:33:57;;;;;;;16.25;9.93;;;;;;;-1.87;53.85;103093.09;5032317;28;20702;-73
2022/01/11 01:36:23;;;;;;;18.92;9.60;;;;;;;-1.99;53.86;103079.72;5026031;28;20059;-73
2022/01/11 01:38:52;;;;;;;18.88;10.60;;;;;;;-2.14;54.52;103090.09;5029032;28;20044;-72
2022/01/11 01:41:19;;;;;;;38.78;9.77;;;;;;;-2.67;55.44;103094.34;5020408;28;20032;-71
2022/01/11 01:43:49;;;;;;;16.60;10.00;;;;;;;-2.36;54.30;103092.41;5036696;28;20040;-72
2022/01/11 01:46:15;;;;;;;23.80;9.90;;;;;;;-2.26;54.51;103095.50;5045984;28;20032;-72
2022/01/11 01:48:41;;;;;;;16.92;9.07;;;;;;;-2.44;54.44;103100.59;5038586;28;20831;-72
2022/01/11 01:51:11;;;;;;;15.52;8.75;;;;;;;-2.12;54.16;103088.50;5050698;28;20063;-72
2022/01/11 01:53:39;;;;;;;24.20;7.78;;;;;;;-2.00;53.84;103095.88;5044423;28;20053;-73
2022/01/11 01:56:06;;;;;;;26.17;9.43;;;;;;;-2.08;53.57;103099.78;5021981;28;20455;-71
2022/01/11 01:58:32;;;;;;;14.82;8.10;;;;;;;-2.15;53.85;103097.72;5034426;28;20565;-71
2022/01/11 02:01:03;;;;;;;18.52;9.18;;;;;;;-2.30;53.75;103103.84;5035327;28;20028;-73
2022/01/11 02:03:39;;;;;;;18.43;8.27;;;;;;;-2.32;53.96;103100.31;5015435;28;20050;-72
2022/01/11 02:06:16;;;;;;;10.27;7.18;;;;;;;-2.34;54.26;103107.06;5043362;28;20027;-72
2022/01/11 02:08:47;;;;;;;14.35;8.23;;;;;;;-2.13;53.71;103101.25;5028403;28;20041;-71
2022/01/11 02:11:18;;;;;;;15.18;8.93;;;;;;;-2.08;53.56;103105.78;5029496;28;20036;-72
2022/01/11 02:13:46;;;;;;;13.68;8.38;;;;;;;-2.16;53.59;103101.09;5026711;28;20051;-72
2022/01/11 02:16:14;;;;;;;14.52;8.35;;;;;;;-2.10;53.60;103106.50;5028220;28;20418;-71
2022/01/11 02:18:46;;;;;;;17.77;9.18;;;;;;;-2.23;53.44;103108.47;5018980;28;20426;-72
2022/01/11 02:21:19;;;;;;;17.88;8.73;;;;;;;-2.21;53.81;103104.28;5034347;28;20037;-71
2022/01/11 02:23:45;;;;;;;24.52;8.65;;;;;;;-2.50;54.36;103114.78;5033025;28;20498;-71
2022/01/11 02:26:12;;;;;;;14.35;8.90;;;;;;;-2.51;54.34;103102.81;5025870;28;20117;-71
2022/01/11 02:28:40;;;;;;;24.55;8.02;;;;;;;-2.56;54.21;103105.09;5031477;28;20037;-71
2022/01/11 02:31:12;;;;;;;23.85;8.13;;;;;;;-2.80;54.98;103099.66;5017966;28;20041;-71
2022/01/11 02:33:45;;;;;;;29.63;7.95;;;;;;;-2.61;54.48;103105.69;5020522;28;20102;-71
2022/01/11 02:36:36;;;;;;;14.70;7.95;;;;;;;-2.47;54.34;103105.59;5011960;28;20783;-71
2022/01/11 02:39:27;;;;;;;41.50;11.55;;;;;;;-2.95;54.98;103119.31;5043842;28;20510;-71
2022/01/11 02:42:01;;;;;;;;;;;;;;;-2.87;55.00;103111.25;5041509;28;20037;-72
2022/01/11 02:44:37;;;;;;;22.65;8.45;;;;;;;-2.64;54.62;103112.41;5036981;28;19908;-71
2022/01/11 02:47:05;;;;;;;32.35;9.73;;;;;;;-2.81;55.28;103118.34;5021324;28;20033;-71
2022/01/11 02:49:33;;;;;;;15.57;9.70;;;;;;;-2.33;54.06;103123.31;5030594;28;20083;-71
2022/01/11 02:52:10;;;;;;;19.50;9.48;;;;;;;-2.64;53.76;103125.22;5037169;28;20495;-71
2022/01/11 02:54:38;;;;;;;14.57;8.15;;;;;;;-2.28;53.70;103121.88;5032932;28;20029;-73
2022/01/11 02:57:24;;;;;;;14.68;8.45;;;;;;;-2.27;53.63;103129.63;5046896;28;20090;-71
2022/01/11 02:59:55;;;;;;;31.27;9.60;;;;;;;-2.36;53.53;103118.91;5035715;28;20029;-71
2022/01/11 03:02:21;;;;;;;18.85;8.02;;;;;;;-2.27;53.40;103116.81;5040901;28;20056;-72
2022/01/11 03:04:48;;;;;;;12.30;8.10;;;;;;;-2.29;53.51;103126.13;5010858;28;20029;-71
2022/01/11 03:07:21;;;;;;;19.45;7.47;;;;;;;-2.45;53.61;103128.69;5017741;28;20138;-71
2022/01/11 03:10:02;;;;;;;28.85;8.27;;;;;;;-2.64;53.90;103127.78;5036727;28;20035;-71
2022/01/11 03:12:34;;;;;;;25.67;7.82;;;;;;;-2.75;53.87;103139.16;5041004;28;20693;-73
2022/01/11 03:14:59;;;;;;;34.58;8.65;;;;;;;-3.11;55.22;103133.88;5038789;28;20123;-72
2022/01/11 03:17:26;;;;;;;14.80;7.85;;;;;;;-2.82;54.38;103139.63;5028472;28;20427;-72
2022/01/11 03:19:53;;;;;;;18.48;7.55;;;;;;;-2.82;54.75;103134.50;5020522;28;20633;-72
2022/01/11 03:22:20;;;;;;;19.42;8.73;;;;;;;-2.67;54.48;103127.63;5033403;28;20059;-68
2022/01/11 03:24:47;;;;;;;40.10;8.80;;;;;;;-3.32;55.78;103130.16;5037125;28;20028;-67
2022/01/11 03:27:14;;;;;;;21.83;9.38;;;;;;;-3.14;55.46;103138.84;5037973;28;20045;-68
2022/01/11 03:29:44;;;;;;;19.33;7.82;;;;;;;-3.01;55.67;103134.34;5031216;28;20060;-68
2022/01/11 03:32:12;;;;;;;16.23;8.00;;;;;;;-2.74;54.38;103130.66;5037741;28;20041;-68
2022/01/11 03:34:41;;;;;;;18.63;8.32;;;;;;;-2.72;54.35;103123.94;5043277;28;20090;-71
2022/01/11 03:37:07;;;;;;;33.70;9.80;;;;;;;-3.19;55.21;103135.13;5010552;28;20061;-71
2022/01/11 03:39:33;;;;;;;15.18;8.07;;;;;;;-2.73;54.51;103132.44;5032693;28;20043;-71
2022/01/11 03:41:59;;;;;;;20.58;9.00;;;;;;;-2.55;54.52;103127.38;5035669;28;20571;-71
2022/01/11 03:44:25;;;;;;;25.13;8.23;;;;;;;-2.84;54.86;103133.56;5008819;28;20043;-72
2022/01/11 03:46:52;;;;;;;17.50;8.77;;;;;;;-2.42;53.60;103128.88;5035421;28;20039;-71
2022/01/11 03:49:18;;;;;;;34.03;8.63;;;;;;;-2.51;53.71;103134.41;5025740;28;20052;-71
2022/01/11 03:51:46;;;;;;;15.02;9.40;;;;;;;-2.40;53.38;103134.94;5052737;28;20040;-69
2022/01/11 03:54:15;;;;;;;16.67;8.75;;;;;;;-2.28;53.87;103135.53;5037601;28;20139;-72
2022/01/11 03:56:57;;;;;;;22.95;8.63;;;;;;;-2.49;52.96;103131.91;5039364;28;20627;-74
2022/01/11 03:59:28;;;;;;;16.23;8.30;;;;;;;-2.50;53.06;103135.28;5022634;28;20098;-72
2022/01/11 04:01:53;;;;;;;22.38;9.05;;;;;;;-2.65;54.02;103138.84;5029810;28;20094;-73
2022/01/11 04:04:19;;;;;;;25.08;9.05;;;;;;;-2.78;54.11;103143.22;5023819;28;20043;-72
2022/01/11 04:06:47;;;;;;;22.83;10.20;;;;;;;-2.67;53.47;103148.13;5029466;28;20038;-72
2022/01/11 04:09:15;;;;;;;39.83;9.30;;;;;;;-2.69;54.02;103144.59;5054997;28;20056;-72
2022/01/11 04:11:43;;;;;;;40.17;9.57;;;;;;;-2.77;54.35;103140.75;5035245;28;20032;-72
2022/01/11 04:14:09;;;;;;;32.53;9.63;;;;;;;-2.51;53.91;103147.22;5017707;28;20053;-74
2022/01/11 04:16:37;;;;;;;23.30;10.30;;;;;;;-2.58;53.98;103146.81;5029236;28;20040;-72
2022/01/11 04:19:04;;;;;;;22.65;8.60;;;;;;;-2.68;54.31;103146.34;5022133;28;20206;-72
2022/01/11 04:21:30;;;;;;;31.58;8.65;;;;;;;-2.90;54.62;103148.59;5021493;28;20028;-72
2022/01/11 04:23:58;;;;;;;16.02;7.60;;;;;;;-2.66;53.72;103147.28;5020552;28;20271;-72
2022/01/11 04:26:25;;;;;;;18.65;8.20;;;;;;;-2.65;53.94;103145.59;5036697;28;20090;-74
2022/01/11 04:28:51;;;;;;;21.38;8.55;;;;;;;-2.54;53.78;103143.59;5036490;28;20032;-70
2022/01/11 04:31:16;;;;;;;28.02;10.02;;;;;;;-2.56;54.02;103147.75;5015959;28;20037;-71
2022/01/11 04:33:43;;;;;;;25.60;7.72;;;;;;;-2.63;53.83;103144.88;5022840;28;20599;-73
2022/01/11 04:36:10;;;;;;;47.45;11.98;;;;;;;-2.70;54.69;103142.81;5035014;28;20048;-72
2022/01/11 04:38:36;;;;;;;69.07;11.30;;;;;;;-3.09;55.41;103139.94;5034434;28;20040;-72
2022/01/11 04:41:02;;;;;;;20.30;8.77;;;;;;;-2.76;54.69;103139.97;5036944;28;20032;-71
2022/01/11 04:43:33;;;;;;;21.63;9.02;;;;;;;-2.62;54.03;103138.09;5026858;28;20048;-70
2022/01/11 04:45:59;;;;;;;20.90;8.95;;;;;;;-2.56;54.11;103132.41;5040961;28;20036;-70
2022/01/11 04:48:29;;;;;;;28.17;10.25;;;;;;;-2.38;54.19;103133.34;5009066;28;20052;-70
2022/01/11 04:50:59;;;;;;;25.15;9.32;;;;;;;-2.36;54.20;103131.72;5036712;28;20040;-71
2022/01/11 04:53:24;;;;;;;24.15;8.80;;;;;;;-2.38;53.63;103125.66;5029675;28;20453;-72
2022/01/11 04:55:54;;;;;;;30.17;8.23;;;;;;;-2.51;53.68;103123.28;5047827;28;20081;-72
2022/01/11 04:58:23;;;;;;;40.28;9.27;;;;;;;-2.68;54.14;103130.97;5053229;28;20057;-73
2022/01/11 05:00:50;;;;;;;23.70;9.52;;;;;;;-2.73;54.47;103132.44;5026896;28;20062;-72
2022/01/11 05:03:19;;;;;;;18.92;8.35;;;;;;;-2.54;54.03;103130.78;4987593;28;20546;-72
2022/01/11 05:05:48;;;;;;;26.88;7.82;;;;;;;-2.71;54.37;103124.84;5012206;28;20067;-71
2022/01/11 05:08:13;;;;;;;19.88;8.77;;;;;;;-2.59;54.10;103127.13;5041387;28;20049;-70
2022/01/11 05:10:42;;;;;;;19.85;8.68;;;;;;;-2.56;54.06;103134.97;5030196;28;20039;-71
2022/01/11 05:13:12;;;;;;;24.45;10.35;;;;;;;-2.50;54.01;103130.16;5021062;28;20519;-71
2022/01/11 05:15:39;;;;;;;27.23;11.48;;;;;;;-2.48;54.00;103123.44;5036827;28;20044;-73
2022/01/11 05:18:07;;;;;;;25.52;9.65;;;;;;;-2.45;53.83;103121.91;5029868;28;20029;-72
2022/01/11 05:20:36;;;;;;;18.33;8.70;;;;;;;-2.59;53.75;103122.88;5036650;28;20028;-71
2022/01/11 05:23:03;;;;;;;28.30;9.60;;;;;;;-2.65;54.12;103115.78;5025749;28;20607;-71
2022/01/11 05:25:29;;;;;;;25.70;10.25;;;;;;;-2.59;53.78;103127.13;5049860;28;20040;-70
2022/01/11 05:27:55;;;;;;;24.70;10.00;;;;;;;-2.71;53.88;103117.16;5013914;28;20052;-71
2022/01/11 05:30:21;;;;;;;19.73;8.77;;;;;;;-2.74;53.89;103107.63;5032205;28;20064;-72
2022/01/11 05:32:48;;;;;;;31.88;9.80;;;;;;;-2.82;53.78;103101.25;5026946;28;20132;-71
2022/01/11 05:35:16;;;;;;;22.75;9.18;;;;;;;-2.89;54.09;103114.53;5027792;28;20039;-72
2022/01/11 05:37:45;;;;;;;18.00;8.10;;;;;;;-2.77;54.00;103112.59;5034422;28;20029;-71
2022/01/11 05:40:11;;;;;;;38.75;9.75;;;;;;;-3.06;54.81;103111.09;5054566;28;20495;-71
2022/01/11 05:42:38;;;;;;;21.23;9.30;;;;;;;-2.69;54.00;103123.25;5019726;28;20053;-72
2022/01/11 05:45:05;;;;;;;24.35;8.57;;;;;;;-2.67;54.19;103124.16;5017761;28;20098;-71
2022/01/11 05:47:32;;;;;;;37.45;9.10;;;;;;;-3.03;54.93;103130.81;5023875;28;20028;-72
2022/01/11 05:49:59;;;;;;;37.72;10.25;;;;;;;-2.69;53.91;103133.47;5034150;28;20040;-72
2022/01/11 05:52:26;;;;;;;17.85;8.35;;;;;;;-2.69;53.91;103142.03;5039202;28;20055;-71
2022/01/11 05:54:53;;;;;;;18.17;8.10;;;;;;;-2.65;53.95;103136.28;5039560;28;20032;-73
2022/01/11 05:57:19;;;;;;;24.25;9.25;;;;;;;-2.70;53.94;103127.44;5034441;28;20032;-71
2022/01/11 05:59:44;;;;;;;23.42;9.93;;;;;;;-2.72;53.77;103121.38;5034821;28;20043;-72
2022/01/11 06:02:12;;;;;;;39.47;10.25;;;;;;;-2.77;53.68;103125.38;5017461;28;20041;-72
2022/01/11 06:04:38;;;;;;;49.47;10.65;;;;;;;-2.82;53.81;103129.41;5023464;28;20053;-71
2022/01/11 06:07:04;;;;;;;34.42;10.38;;;;;;;-2.95;54.37;103137.22;5008335;28;20544;-68
2022/01/11 06:09:30;;;;;;;32.45;9.80;;;;;;;-2.88;54.33;103131.63;5020913;28;20045;-68
2022/01/11 06:11:56;;;;;;;23.02;7.45;;;;;;;-2.91;54.40;103137.47;5032004;28;20127;-68
2022/01/11 06:14:22;;;;;;;29.45;9.68;;;;;;;-2.91;54.32;103137.47;5020969;28;20384;-69
2022/01/11 06:16:50;;;;;;;20.88;9.60;;;;;;;-2.83;54.41;103150.66;5024796;28;20028;-70
2022/01/11 06:19:15;;;;;;;29.58;11.50;;;;;;;-2.71;54.21;103151.31;5049393;28;20035;-69
2022/01/11 06:21:50;;;;;;;23.05;10.93;;;;;;;-2.57;54.01;103148.56;5034366;28;20032;-71
2022/01/11 06:24:16;;;;;;;37.00;10.20;;;;;;;-2.72;53.84;103151.22;5017019;28;20029;-71
2022/01/11 06:26:42;;;;;;;43.17;9.77;;;;;;;-2.63;54.05;103157.69;5016172;28;20029;-71
2022/01/11 06:29:08;;;;;;;31.17;11.10;;;;;;;-2.59;53.98;103155.31;5018745;28;20041;-70
2022/01/11 06:31:35;;;;;;;47.90;9.93;;;;;;;-2.80;54.28;103161.06;5016660;28;20082;-70
2022/01/11 06:34:02;;;;;;;23.08;10.48;;;;;;;-2.73;54.14;103155.47;5049054;28;20801;-70
2022/01/11 06:36:30;;;;;;;33.63;11.50;;;;;;;-2.77;54.25;103150.97;5034590;28;20067;-70
2022/01/11 06:38:58;;;;;;;37.17;11.32;;;;;;;-2.91;54.05;103146.84;5018765;28;20031;-70
2022/01/11 06:41:30;;;;;;;28.10;11.75;;;;;;;-2.88;54.19;103147.00;5025079;28;20106;-70
2022/01/11 06:43:59;;;;;;;34.50;11.82;;;;;;;-2.92;54.29;103155.31;5025217;28;20049;-71
2022/01/11 06:46:28;;;;;;;31.98;10.77;;;;;;;-2.80;54.19;103161.06;5041071;28;20036;-72
2022/01/11 06:48:57;;;;;;;31.27;12.32;;;;;;;-2.90;54.31;103161.38;5052698;28;20052;-71
2022/01/11 06:51:23;;;;;;;32.70;11.95;;;;;;;-2.80;54.26;103166.19;5037970;28;20024;-71
2022/01/11 06:53:49;;;;;;;32.85;12.25;;;;;;;-2.78;54.40;103167.16;5023530;28;20025;-69
2022/01/11 06:56:17;;;;;;;51.25;13.40;;;;;;;-3.00;54.74;103172.81;5040912;28;20060;-70
2022/01/11 06:58:44;;;;;;;36.92;12.30;;;;;;;-2.85;54.49;103162.50;5053702;28;20032;-70
2022/01/11 07:01:11;;;;;;;37.30;12.90;;;;;;;-2.90;54.73;103172.50;5016378;28;20033;-72
2022/01/11 07:03:37;;;;;;;30.65;11.93;;;;;;;-2.80;54.48;103175.53;5009288;28;20090;-70
2022/01/11 07:06:31;;;;;;;37.92;13.43;;;;;;;-2.87;54.57;103172.66;5031725;28;20036;-71
2022/01/11 07:09:00;;;;;;;45.78;13.57;;;;;;;-3.03;55.43;103169.19;5039027;28;20072;-71
2022/01/11 07:11:30;;;;;;;45.28;14.02;;;;;;;-2.85;54.73;103172.72;5038872;28;20045;-70
2022/01/11 07:13:57;;;;;;;40.70;14.43;;;;;;;-2.79;54.68;103162.81;5035047;28;20032;-71
2022/01/11 07:16:23;;;;;;;32.47;13.15;;;;;;;-2.74;54.88;103175.84;5051104;28;20044;-71
2022/01/11 07:18:50;;;;;;;39.03;13.27;;;;;;;-2.70;54.11;103178.66;5027349;28;20033;-73
2022/01/11 07:21:16;;;;;;;40.03;14.50;;;;;;;-2.68;54.58;103179.63;5050009;28;20040;-71
2022/01/11 07:23:46;;;;;;;36.70;15.10;;;;;;;-2.52;54.59;103185.53;5036401;28;20047;-71
2022/01/11 07:26:14;;;;;;;36.38;12.80;;;;;;;-2.62;54.56;103186.75;5005562;28;20048;-71
2022/01/11 07:28:40;;;;;;;35.63;12.77;;;;;;;-2.50;54.23;103189.94;5027686;28;20029;-70
2022/01/11 07:31:13;;;;;;;44.28;15.05;;;;;;;-3.09;55.05;103197.91;5032531;28;20077;-71
2022/01/11 07:33:49;;;;;;;44.40;13.95;;;;;;;-2.68;54.96;103202.66;5037134;28;20877;-71
2022/01/11 07:36:18;;;;;;;41.08;14.40;;;;;;;-2.57;54.63;103207.47;5035546;28;20086;-71
2022/01/11 07:38:47;;;;;;;33.08;12.88;;;;;;;-2.61;54.05;103198.72;5028704;28;20038;-70
2022/01/11 07:41:19;;;;;;;38.22;13.25;;;;;;;-2.56;53.92;103201.53;5018165;28;20037;-70
2022/01/11 07:43:58;;;;;;;32.83;12.65;;;;;;;-2.60;54.14;103197.94;5036108;28;22278;-71
2022/01/11 07:46:31;;;;;;;31.60;12.20;;;;;;;-2.57;54.70;103200.66;5019444;28;20804;-71
2022/01/11 07:49:02;;;;;;;34.05;12.52;;;;;;;-2.73;54.64;103196.44;5048333;28;20066;-70
2022/01/11 07:51:29;;;;;;;31.45;12.98;;;;;;;-2.46;54.34;103208.91;5035299;28;20136;-73
2022/01/11 07:54:00;;;;;;;33.38;12.80;;;;;;;-2.70;55.15;103209.38;5042532;28;20048;-70
2022/01/11 07:56:27;;;;;;;36.88;14.18;;;;;;;-2.59;54.84;103206.50;5040922;28;20124;-73
2022/01/11 07:58:58;;;;;;;53.55;14.23;;;;;;;-2.48;54.79;103200.25;5023196;28;20029;-74
2022/01/11 08:01:28;;;;;;;33.80;13.73;;;;;;;-2.65;54.98;103207.97;5021634;28;20060;-72
2022/01/11 08:03:56;;;;;;;35.10;14.35;;;;;;;-2.39;54.49;103205.84;5013332;28;20052;-74
2022/01/11 08:06:27;;;;;;;31.95;13.00;;;;;;;-2.32;54.54;103207.91;5020109;28;20260;-71
2022/01/11 08:09:03;;;;;;;36.40;13.43;;;;;;;-2.51;55.30;103210.34;5034822;28;20516;-73
2022/01/11 08:11:29;;;;;;;33.25;12.95;;;;;;;-2.89;56.09;103222.88;5048590;28;20040;-72
2022/01/11 08:13:56;;;;;;;36.10;13.43;;;;;;;-2.15;54.73;103215.59;5006808;28;20584;-73
2022/01/11 08:16:22;;;;;;;34.40;12.93;;;;;;;-1.84;54.40;103223.13;5042470;28;20036;-72
2022/01/11 08:18:53;;;;;;;39.65;13.48;;;;;;;-1.56;54.11;103219.34;5050787;28;20111;-74
2022/01/11 08:21:20;;;;;;;36.25;14.15;;;;;;;-1.84;53.70;103234.25;5030341;28;20041;-72
2022/01/11 08:23:46;;;;;;;30.88;13.20;;;;;;;-1.53;53.51;103233.19;5011260;28;20485;-71
2022/01/11 08:26:13;;;;;;;29.60;13.75;;;;;;;-1.54;53.91;103227.97;5047634;28;20119;-72
2022/01/11 08:28:39;;;;;;;34.97;13.50;;;;;;;-1.40;53.37;103232.97;4997307;28;20048;-74
2022/01/11 08:31:10;;;;;;;36.38;13.05;;;;;;;-1.68;53.34;103235.88;5050996;28;20040;-72
2022/01/11 08:33:42;;;;;;;35.03;13.52;;;;;;;-1.43;52.69;103229.38;5013937;28;20080;-71
2022/01/11 08:36:14;;;;;;;31.77;13.80;;;;;;;-1.55;53.58;103237.38;5030581;28;20040;-71
2022/01/11 08:38:40;;;;;;;38.13;13.50;;;;;;;-1.65;53.93;103243.72;5021521;28;20024;-72
2022/01/11 08:41:11;;;;;;;31.85;11.73;;;;;;;-1.40;53.14;103243.25;5051284;28;20068;-72
2022/01/11 08:43:37;;;;;;;29.52;12.95;;;;;;;-1.49;52.72;103244.47;5042561;28;20048;-74
2022/01/11 08:46:04;;;;;;;35.42;14.15;;;;;;;-1.49;53.44;103253.03;5046847;28;20029;-72
2022/01/11 08:48:35;;;;;;;34.95;13.70;;;;;;;-1.38;52.85;103258.69;5029878;28;20424;-71
2022/01/11 08:51:06;;;;;;;35.73;15.07;;;;;;;-1.22;52.83;103248.34;5038271;28;20053;-71
2022/01/11 08:53:33;;;;;;;38.92;13.73;;;;;;;-1.28;53.52;103253.19;4992318;28;20466;-71
2022/01/11 08:56:05;;;;;;;52.78;13.68;;;;;;;-2.18;55.05;103251.28;5030118;28;20119;-70
2022/01/11 08:58:34;;;;;;;28.50;12.75;;;;;;;-1.33;53.73;103248.63;5028785;28;20048;-70
2022/01/11 09:01:05;;;;;;;44.38;15.07;;;;;;;-1.37;53.28;103237.38;5045681;28;20029;-73
2022/01/11 09:03:33;;;;;;;38.17;15.18;;;;;;;-1.32;53.29;103229.88;5007780;28;20402;-72
2022/01/11 09:05:59;;;;;;;32.85;12.93;;;;;;;-1.27;53.37;103236.97;5024999;28;20500;-75
2022/01/11 09:08:28;;;;;;;36.50;13.50;;;;;;;-1.35;53.65;103240.88;5034608;28;20068;-76
2022/01/11 09:10:53;;;;;;;34.70;13.45;;;;;;;-1.38;53.48;103231.34;5029251;28;20532;-73
2022/01/11 09:13:20;;;;;;;30.90;15.00;;;;;;;-1.20;53.61;103230.44;5021589;28;20042;-73
2022/01/11 09:15:46;;;;;;;34.70;14.05;;;;;;;-1.36;53.69;103227.97;4996598;28;20700;-74
2022/01/11 09:18:12;;;;;;;32.08;14.38;;;;;;;-1.06;53.33;103224.31;5023289;28;20063;-74
2022/01/11 09:20:40;;;;;;;39.03;15.35;;;;;;;-0.99;53.12;103218.66;5016253;28;20521;-73
2022/01/11 09:23:07;;;;;;;34.15;14.88;;;;;;;-1.05;53.39;103210.66;5047555;28;20037;-73
2022/01/11 09:25:36;;;;;;;38.00;15.43;;;;;;;-1.26;54.25;103207.09;5019908;28;20051;-73
2022/01/11 09:28:06;;;;;;;34.63;15.10;;;;;;;-1.14;53.91;103205.06;4994311;28;20040;-73
2022/01/11 09:30:32;;;;;;;35.90;14.75;;;;;;;-0.93;53.56;103210.31;5024631;28;20538;-73
2022/01/11 09:32:59;;;;;;;31.52;14.82;;;;;;;-0.90;53.50;103199.34;5015004;28;20507;-74
2022/01/11 09:35:27;;;;;;;36.88;16.85;;;;;;;-0.92;53.45;103204.41;5016669;28;20444;-73
2022/01/11 09:38:06;;;;;;;38.13;16.25;;;;;;;-0.75;53.31;103210.28;5028902;28;20037;-74
2022/01/11 09:40:33;;;;;;;38.50;15.85;;;;;;;-0.65;53.16;103207.31;5012545;28;20585;-71
2022/01/11 09:43:04;;;;;;;35.33;15.32;;;;;;;-0.66;53.28;103205.56;5024370;28;20462;-73
2022/01/11 09:45:29;;;;;;;34.28;15.32;;;;;;;-0.60;53.05;103204.94;5004975;28;20452;-74
2022/01/11 09:47:55;;;;;;;32.80;15.43;;;;;;;-0.43;52.74;103215.97;5021110;28;20413;-74
2022/01/11 09:50:22;;;;;;;36.20;16.08;;;;;;;-0.39;52.78;103210.16;5027769;28;20102;-74
2022/01/11 09:53:02;;;;;;;32.83;16.90;;;;;;;0.05;52.45;103213.69;5019161;28;20182;-73
2022/01/11 09:55:30;;;;;;;38.08;15.80;;;;;;;0.07;51.63;103217.22;5031280;28;20028;-73
2022/01/11 09:57:56;;;;;;;33.85;14.50;;;;;;;0.41;51.54;103206.63;5030167;28;20071;-73
2022/01/11 10:00:49;;;;;;;35.30;14.63;;;;;;;0.47;51.46;103203.41;5019196;28;20048;-74
2022/01/11 10:03:56;;;;;;;31.92;13.73;;;;;;;0.70;50.99;103204.28;5018086;28;20516;-73
2022/01/11 10:06:26;;;;;;;34.72;14.30;;;;;;;1.06;51.24;103207.41;5036187;28;20406;-74
2022/01/11 10:09:12;;;;;;;27.42;13.90;;;;;;;1.22;49.93;103197.66;5035772;28;20036;-72
2022/01/11 10:11:48;;;;;;;30.17;14.05;;;;;;;1.90;48.03;103201.75;5036434;28;20032;-73
2022/01/11 10:14:24;;;;;;;29.05;14.02;;;;;;;1.57;46.79;103213.50;5016038;28;20049;-72
2022/01/11 10:17:04;;;;;;;25.38;11.45;;;;;;;1.32;48.17;103216.06;5025550;28;20036;-74
2022/01/11 10:19:30;;;;;;;29.92;13.65;;;;;;;1.67;46.99;103202.72;5050757;28;20467;-73
2022/01/11 10:21:56;;;;;;;27.85;13.23;;;;;;;1.42;48.20;103207.00;5036384;28;20034;-72
2022/01/11 10:24:42;;;;;;;25.60;11.23;;;;;;;1.33;48.69;103206.66;5012433;28;20076;-73
2022/01/11 10:27:23;;;;;;;27.83;13.30;;;;;;;1.21;48.37;103201.91;5018371;28;20045;-74
2022/01/11 10:29:53;;;;;;;31.02;14.35;;;;;;;0.66;49.26;103199.88;5032967;28;20025;-74
2022/01/11 10:32:37;;;;;;;35.88;13.68;;;;;;;0.71;49.88;103202.63;5029082;28;20041;-75
2022/01/11 10:35:10;;;;;;;33.38;13.43;;;;;;;0.52;50.34;103194.16;5037217;28;20040;-73
2022/01/11 10:37:46;;;;;;;30.35;14.30;;;;;;;0.22;50.81;103188.69;5011492;28;20062;-75
2022/01/11 10:40:23;;;;;;;28.20;14.00;;;;;;;0.65;50.70;103186.09;5028951;28;20073;-73
2022/01/11 10:42:50;;;;;;;31.63;14.45;;;;;;;0.38;51.21;103188.47;5013455;28;20067;-74
2022/01/11 10:45:26;;;;;;;38.63;13.65;;;;;;;0.31;50.99;103190.75;5051176;28;20040;-73
2022/01/11 10:47:56;;;;;;;34.42;13.18;;;;;;;0.63;50.47;103182.56;5034192;28;20037;-76
2022/01/11 10:50:29;;;;;;;31.45;14.32;;;;;;;0.57;50.49;103184.94;5024632;28;20373;-75
2022/01/11 10:52:59;;;;;;;28.65;11.90;;;;;;;0.06;51.98;103189.75;5030457;28;20040;-75
2022/01/11 10:55:29;;;;;;;30.05;13.60;;;;;;;0.24;51.87;103190.50;5014722;28;20140;-72
2022/01/11 10:58:03;;;;;;;26.40;13.30;;;;;;;0.48;51.12;103185.44;5010473;28;20071;-72
2022/01/11 11:00:34;;;;;;;25.17;12.07;;;;;;;0.47;50.11;103183.69;5021969;28;20029;-72
2022/01/11 11:03:04;;;;;;;32.03;14.13;;;;;;;0.83;49.83;103190.19;5023145;28;20052;-73
2022/01/11 11:05:36;;;;;;;34.58;13.57;;;;;;;0.86;49.62;103186.03;5035016;28;20568;-74
2022/01/11 11:08:26;;;;;;;25.65;12.45;;;;;;;0.83;49.82;103183.34;5017846;28;20045;-74
2022/01/11 11:11:07;;;;;;;30.55;14.60;;;;;;;1.04;48.91;103166.94;5029781;28;20565;-75
2022/01/11 11:13:38;;;;;;;31.88;13.48;;;;;;;1.06;49.18;103181.63;5019535;28;20147;-72
2022/01/11 11:16:22;;;;;;;33.50;14.48;;;;;;;0.88;49.61;103180.94;5017576;28;20032;-75
2022/01/11 11:18:57;;;;;;;30.73;13.05;;;;;;;0.92;50.09;103187.94;5016894;28;20037;-74
2022/01/11 11:21:32;;;;;;;27.90;14.52;;;;;;;1.15;48.96;103195.66;5033123;28;20556;-74
2022/01/11 11:24:07;;;;;;;25.63;12.73;;;;;;;1.05;48.81;103194.44;5047732;28;20044;-73